sensor_id;sensor_type;location;lat;lon;timestamp;pressure;altitude;pressure_sealevel;temperature;humidity
4528;BME280;62320;51.520;6.818;2023-03-26T00:08:11;100283.19;;;8.98;100.00
4528;BME280;62320;51.520;6.818;2023-03-26T00:18:12;100274.59;;;8.96;99.46
4528;BME280;62320;51.520;6.818;2023-03-26T00:28:14;100266.00;;;8.88;99.45
4528;BME280;62320;51.520;6.818;2023-03-26T00:38:17;100256.56;;;8.95;99.34
4528;BME280;62320;51.520;6.818;2023-03-26T00:48:20;100257.41;;;8.94;99.78
4528;BME280;62320;51.520;6.818;2023-03-26T00:58:34;100261.69;;;8.89;99.29
4528;BME280;62320;51.520;6.818;2023-03-26T01:08:44;100244.50;;;8.89;99.15
4528;BME280;62320;51.520;6.818;2023-03-26T01:18:47;100243.66;;;8.92;99.37
4528;BME280;62320;51.520;6.818;2023-03-26T01:28:54;100222.16;;;8.91;98.54
4528;BME280;62320;51.520;6.818;2023-03-26T01:39:02;100219.59;;;8.91;98.58
4528;BME280;62320;51.520;6.818;2023-03-26T01:49:08;100206.69;;;8.94;98.63
4528;BME280;62320;51.520;6.818;2023-03-26T01:59:31;100181.78;;;8.90;98.80
4528;BME280;62320;51.520;6.818;2023-03-26T02:09:43;100168.91;;;8.84;98.92
4528;BME280;62320;51.520;6.818;2023-03-26T02:19:47;100162.03;;;8.77;97.44
4528;BME280;62320;51.520;6.818;2023-03-26T02:41:11;100134.59;;;8.72;97.47
4528;BME280;62320;51.520;6.818;2023-03-26T02:51:12;100133.72;;;8.71;98.35
4528;BME280;62320;51.520;6.818;2023-03-26T03:01:14;100113.09;;;8.73;97.74
4528;BME280;62320;51.520;6.818;2023-03-26T03:11:18;100095.09;;;8.62;97.80
4528;BME280;62320;51.520;6.818;2023-03-26T03:21:27;100075.38;;;8.47;98.65
4528;BME280;62320;51.520;6.818;2023-03-26T03:31:29;100065.09;;;8.35;98.99
4528;BME280;62320;51.520;6.818;2023-03-26T03:41:31;100062.50;;;8.25;98.95
4528;BME280;62320;51.520;6.818;2023-03-26T03:51:32;100051.38;;;8.12;99.80
4528;BME280;62320;51.520;6.818;2023-03-26T04:01:35;100041.94;;;8.11;99.44
4528;BME280;62320;51.520;6.818;2023-03-26T04:11:37;100033.38;;;7.99;99.87
4528;BME280;62320;51.520;6.818;2023-03-26T04:21:39;100028.25;;;7.93;99.86
4528;BME280;62320;51.520;6.818;2023-03-26T04:31:43;100011.91;;;7.98;100.00
4528;BME280;62320;51.520;6.818;2023-03-26T04:41:45;100002.50;;;7.91;100.00
4528;BME280;62320;51.520;6.818;2023-03-26T04:51:47;99990.50;;;7.91;100.00
4528;BME280;62320;51.520;6.818;2023-03-26T05:01:48;99978.47;;;7.92;100.00
4528;BME280;62320;51.520;6.818;2023-03-26T05:11:50;99958.75;;;7.94;100.00
4528;BME280;62320;51.520;6.818;2023-03-26T05:21:52;99940.75;;;7.93;99.72
4528;BME280;62320;51.520;6.818;2023-03-26T05:31:53;99936.41;;;7.98;100.00
4528;BME280;62320;51.520;6.818;2023-03-26T05:41:55;99908.13;;;7.95;100.00
4528;BME280;62320;51.520;6.818;2023-03-26T05:51:56;99897.81;;;7.98;99.19
4528;BME280;62320;51.520;6.818;2023-03-26T06:01:58;99890.06;;;7.98;100.00
4528;BME280;62320;51.520;6.818;2023-03-26T06:11:59;99881.50;;;8.00;100.00
4528;BME280;62320;51.520;6.818;2023-03-26T06:22:02;99871.19;;;8.03;100.00
4528;BME280;62320;51.520;6.818;2023-03-26T06:32:04;99863.47;;;8.06;100.00
4528;BME280;62320;51.520;6.818;2023-03-26T06:42:19;99859.13;;;8.14;100.00
4528;BME280;62320;51.520;6.818;2023-03-26T06:52:32;99857.38;;;8.24;100.00
4528;BME280;62320;51.520;6.818;2023-03-26T07:02:34;99842.78;;;8.24;100.00
4528;BME280;62320;51.520;6.818;2023-03-26T07:12:36;99825.50;;;8.43;100.00
4528;BME280;62320;51.520;6.818;2023-03-26T07:22:37;99812.59;;;8.47;100.00
4528;BME280;62320;51.520;6.818;2023-03-26T07:32:50;99813.44;;;8.52;100.00
4528;BME280;62320;51.520;6.818;2023-03-26T07:43:15;99791.03;;;8.62;100.00
4528;BME280;62320;51.520;6.818;2023-03-26T07:53:20;99784.97;;;8.66;100.00
4528;BME280;62320;51.520;6.818;2023-03-26T08:03:30;99774.59;;;8.77;100.00
4528;BME280;62320;51.520;6.818;2023-03-26T08:24:07;99771.00;;;8.94;100.00
4528;BME280;62320;51.520;6.818;2023-03-26T08:34:12;99766.63;;;9.01;100.00
4528;BME280;62320;51.520;6.818;2023-03-26T09:05:16;99764.75;;;9.16;100.00
4528;BME280;62320;51.520;6.818;2023-03-26T09:46:59;99740.50;;;9.32;100.00
4528;BME280;62320;51.520;6.818;2023-03-26T10:08:02;99732.69;;;9.39;100.00
4528;BME280;62320;51.520;6.818;2023-03-26T10:18:24;99727.41;;;9.49;100.00
4528;BME280;62320;51.520;6.818;2023-03-26T10:38:56;99732.63;;;9.43;100.00
4528;BME280;62320;51.520;6.818;2023-03-26T10:59:43;99724.00;;;9.47;100.00
4528;BME280;62320;51.520;6.818;2023-03-26T11:20:19;99723.25;;;9.38;100.00
4528;BME280;62320;51.520;6.818;2023-03-26T11:30:32;99724.16;;;9.33;100.00
4528;BME280;62320;51.520;6.818;2023-03-26T11:40:41;99721.47;;;9.41;100.00
4528;BME280;62320;51.520;6.818;2023-03-26T11:50:50;99721.53;;;9.38;100.00
4528;BME280;62320;51.520;6.818;2023-03-26T12:00:56;99721.38;;;9.52;100.00
4528;BME280;62320;51.520;6.818;2023-03-26T12:11:02;99716.88;;;9.67;100.00
4528;BME280;62320;51.520;6.818;2023-03-26T12:21:13;99717.63;;;9.74;100.00
4528;BME280;62320;51.520;6.818;2023-03-26T12:31:16;99720.06;;;9.84;100.00
4528;BME280;62320;51.520;6.818;2023-03-26T12:41:20;99715.59;;;9.95;100.00
4528;BME280;62320;51.520;6.818;2023-03-26T12:51:56;99710.38;;;10.01;100.00
4528;BME280;62320;51.520;6.818;2023-03-26T13:02:07;99713.78;;;10.03;100.00
4528;BME280;62320;51.520;6.818;2023-03-26T13:22:48;99720.38;;;10.24;100.00
4528;BME280;62320;51.520;6.818;2023-03-26T13:33:01;99722.97;;;9.59;100.00
4528;BME280;62320;51.520;6.818;2023-03-26T13:43:16;99728.03;;;9.69;100.00
4528;BME280;62320;51.520;6.818;2023-03-26T13:53:25;99715.88;;;9.76;100.00
4528;BME280;62320;51.520;6.818;2023-03-26T14:03:43;99727.97;;;9.74;100.00
4528;BME280;62320;51.520;6.818;2023-03-26T14:13:54;99730.41;;;9.81;100.00
4528;BME280;62320;51.520;6.818;2023-03-26T14:24:01;99738.28;;;9.72;100.00
4528;BME280;62320;51.520;6.818;2023-03-26T14:44:55;99756.69;;;9.47;100.00
4528;BME280;62320;51.520;6.818;2023-03-26T14:55:03;99779.31;;;9.20;100.00
4528;BME280;62320;51.520;6.818;2023-03-26T16:06:59;99890.00;;;8.31;100.00
4528;BME280;62320;51.520;6.818;2023-03-26T16:17:05;99906.41;;;7.97;100.00
4528;BME280;62320;51.520;6.818;2023-03-26T16:48:05;99970.72;;;8.06;100.00
4528;BME280;62320;51.520;6.818;2023-03-26T17:08:43;100001.59;;;8.04;100.00
4528;BME280;62320;51.520;6.818;2023-03-26T17:39:21;100089.13;;;7.68;99.56
4528;BME280;62320;51.520;6.818;2023-03-26T17:49:44;100103.72;;;7.51;96.94
4528;BME280;62320;51.520;6.818;2023-03-26T17:59:47;100129.38;;;7.34;96.23
4528;BME280;62320;51.520;6.818;2023-03-26T18:20:29;100184.22;;;7.29;95.05
4528;BME280;62320;51.520;6.818;2023-03-26T18:30:47;100203.91;;;7.24;95.87
4528;BME280;62320;51.520;6.818;2023-03-26T18:40:50;100221.00;;;7.14;94.68
4528;BME280;62320;51.520;6.818;2023-03-26T18:51:02;100240.72;;;7.13;93.08
4528;BME280;62320;51.520;6.818;2023-03-26T19:01:10;100250.94;;;7.01;91.52
4528;BME280;62320;51.520;6.818;2023-03-26T19:11:24;100273.91;;;6.80;89.29
4528;BME280;62320;51.520;6.818;2023-03-26T19:21:26;100291.78;;;6.65;88.03
4528;BME280;62320;51.520;6.818;2023-03-26T19:31:33;100319.16;;;6.59;87.75
4528;BME280;62320;51.520;6.818;2023-03-26T19:41:38;100336.22;;;6.54;87.96
4528;BME280;62320;51.520;6.818;2023-03-26T19:51:41;100357.50;;;6.40;86.73
4528;BME280;62320;51.520;6.818;2023-03-26T20:01:42;100375.44;;;6.37;87.03
4528;BME280;62320;51.520;6.818;2023-03-26T20:11:44;100416.25;;;6.16;83.76
4528;BME280;62320;51.520;6.818;2023-03-26T20:21:47;100433.22;;;6.07;81.85
4528;BME280;62320;51.520;6.818;2023-03-26T20:31:49;100442.56;;;6.00;82.11
4528;BME280;62320;51.520;6.818;2023-03-26T20:41:52;100486.69;;;5.76;80.36
4528;BME280;62320;51.520;6.818;2023-03-26T20:51:54;100506.13;;;5.64;81.13
4528;BME280;62320;51.520;6.818;2023-03-26T21:01:56;100528.25;;;5.56;81.48
4528;BME280;62320;51.520;6.818;2023-03-26T21:12:04;100539.53;;;5.67;84.13
4528;BME280;62320;51.520;6.818;2023-03-26T21:22:29;100555.94;;;5.26;83.70
4528;BME280;62320;51.520;6.818;2023-03-26T21:32:34;100585.38;;;5.01;83.01
4528;BME280;62320;51.520;6.818;2023-03-26T21:42:36;100608.66;;;4.71;84.25
4528;BME280;62320;51.520;6.818;2023-03-26T21:52:38;100635.38;;;4.84;84.63
4528;BME280;62320;51.520;6.818;2023-03-26T22:03:02;100635.09;;;4.70;86.00
4528;BME280;62320;51.520;6.818;2023-03-26T22:13:06;100671.28;;;4.47;85.65
4528;BME280;62320;51.520;6.818;2023-03-26T22:23:08;100684.75;;;4.38;86.05
4528;BME280;62320;51.520;6.818;2023-03-26T22:33:10;100693.97;;;4.31;86.37
4528;BME280;62320;51.520;6.818;2023-03-26T22:43:12;100716.06;;;4.28;86.76
4528;BME280;62320;51.520;6.818;2023-03-26T22:53:13;100726.28;;;4.28;87.75
4528;BME280;62320;51.520;6.818;2023-03-26T23:03:15;100751.84;;;4.26;87.01
4528;BME280;62320;51.520;6.818;2023-03-26T23:13:18;100785.69;;;4.16;87.71
4528;BME280;62320;51.520;6.818;2023-03-26T23:23:21;100797.56;;;4.13;88.21
4528;BME280;62320;51.520;6.818;2023-03-26T23:33:26;100808.41;;;4.04;88.92
4528;BME280;62320;51.520;6.818;2023-03-26T23:43:30;100827.69;;;3.93;88.18
4528;BME280;62320;51.520;6.818;2023-03-26T23:53:32;100849.66;;;3.85;88.32
